Hunt, Illinois
Current Conditions -  °F | °C
As of 6:35 AM on Friday 31 Oct 2014 (Local Time) from KRSV Reporting Station
Overcast Overcast  
Wind Chill: 44°   Ceiling: 7500
Heat Index: 46°   Visibility: 7mi
Dew Point: 45°   Wind: 6mph
Humidity: 94%   Direction: 300°WNW
Pressure: 30.06"   Gusts: NA
Location:  38.9751°N, 88.0102°W
Report Text: KRSV 311135Z AUTO 30005KT 7SM OVC075 08/07 A3006 RMK AO2 T00800071
Loading
Personal Weather Stations






























Interactive Weather Map
Tropical Storm Tracking
New forecast layout! Learn more

10-Day Weather Forecast

Advertisements
Track Severe Weather on mobile